Time;durP1;ratioP1;P1;durP2;ratioP2;P2;SDS_P1;SDS_P2;PMS_P1;PMS_P2;Temp;Humidity;BMP_temperature;BMP_pressure;BME280_temperature;BME280_humidity;BME280_pressure;Samples;Min_cycle;Max_cycle;Signal;HPM_P1;HPM_P2
2023/11/24 00:00:57;;;;;;;1.77;1.10;;;;;;;4.62;100.00;97763.28;1716556;83;27339;-53
2023/11/24 00:03:28;;;;;;;6.95;1.75;;;;;;;4.60;100.00;97756.92;1716368;83;25600;-53
2023/11/24 00:05:58;;;;;;;4.80;2.05;;;;;;;4.60;100.00;97744.87;1716589;83;25466;-56
2023/11/24 00:08:28;;;;;;;7.05;1.62;;;;;;;4.59;100.00;97745.97;1716497;83;26392;-54
2023/11/24 00:10:58;;;;;;;;;;;;;;;4.58;100.00;97759.69;1719161;83;25609;-56
2023/11/24 00:13:28;;;;;;;10.38;5.50;;;;;;;4.56;100.00;97734.58;1716517;83;27346;-51
2023/11/24 00:15:59;;;;;;;13.32;6.50;;;;;;;4.56;100.00;97748.53;1716453;83;25425;-51
2023/11/24 00:18:28;;;;;;;2.83;1.75;;;;;;;4.56;100.00;97739.94;1716633;83;25442;-53
2023/11/24 00:20:55;;;;;;;;;;;;;;;4.58;100.00;97731.04;1719134;83;26330;-59
2023/11/24 00:23:26;;;;;;;4.12;1.40;;;;;;;4.62;100.00;97747.22;1716590;83;25612;-55
2023/11/24 00:25:55;;;;;;;;;;;;;;;4.64;100.00;97751.12;1719101;83;28058;-57
2023/11/24 00:28:25;;;;;;;5.10;1.70;;;;;;;4.64;100.00;97758.38;1716629;83;33038;-56
2023/11/24 00:30:54;;;;;;;4.33;2.05;;;;;;;4.64;100.00;97766.41;1716551;83;25600;-53
2023/11/24 00:33:24;;;;;;;5.67;2.10;;;;;;;4.64;100.00;97785.92;1715844;82;25976;-54
2023/11/24 00:35:55;;;;;;;7.85;1.50;;;;;;;4.66;100.00;97769.53;1716821;83;25459;-56
2023/11/24 00:38:23;;;;;;;7.90;1.90;;;;;;;4.66;100.00;97753.47;1716844;83;27330;-57
2023/11/24 00:40:53;;;;;;;8.95;1.80;;;;;;;4.66;100.00;97763.61;1716761;83;25395;-54
2023/11/24 00:43:22;;;;;;;5.03;1.82;;;;;;;4.66;100.00;97771.64;1716815;83;25542;-53
2023/11/24 00:45:50;;;;;;;2.80;1.22;;;;;;;4.69;100.00;97744.78;1716949;83;25631;-53
2023/11/24 00:48:22;;;;;;;9.45;1.52;;;;;;;4.71;100.00;97751.14;1716972;83;25561;-53
2023/11/24 00:50:51;;;;;;;10.08;1.85;;;;;;;4.76;100.00;97745.57;1716736;83;27455;-53
2023/11/24 00:53:21;;;;;;;8.85;1.70;;;;;;;4.80;100.00;97741.10;1716643;83;25986;-54
2023/11/24 00:55:51;;;;;;;6.50;2.00;;;;;;;4.81;100.00;97735.98;1716733;83;25332;-53
2023/11/24 00:58:18;;;;;;;8.53;1.92;;;;;;;4.83;100.00;97740.44;1716733;83;26359;-54
2023/11/24 01:00:48;;;;;;;4.53;2.12;;;;;;;4.85;100.00;97742.22;1694421;83;25449;-55
2023/11/24 01:03:18;;;;;;;6.95;2.05;;;;;;;4.84;100.00;97742.79;1716867;83;28920;-57
2023/11/24 01:05:52;;;;;;;10.75;1.90;;;;;;;4.83;100.00;97759.97;1716811;83;25535;-59
2023/11/24 01:08:22;;;;;;;8.78;2.60;;;;;;;4.81;99.73;97759.52;1719187;83;25557;-58
2023/11/24 01:10:56;;;;;;;8.45;2.80;;;;;;;4.79;99.29;97749.70;1719212;83;25598;-59
2023/11/24 01:13:26;;;;;;;6.85;2.10;;;;;;;4.77;99.25;97756.52;1716891;83;25496;-59
2023/11/24 01:15:56;;;;;;;9.15;2.12;;;;;;;4.73;98.96;97736.86;1716837;83;27627;-57
2023/11/24 01:18:27;;;;;;;;;;;;;;;4.68;98.85;97725.80;1719277;83;25683;-56
2023/11/24 01:20:57;;;;;;;5.03;1.67;;;;;;;4.65;98.79;97733.17;1719266;83;25555;-54
2023/11/24 01:23:28;;;;;;;9.70;3.05;;;;;;;4.61;98.70;97734.38;1694036;83;26593;-57
2023/11/24 01:25:58;;;;;;;10.40;2.30;;;;;;;4.59;98.62;97743.86;1716821;83;25426;-56
2023/11/24 01:28:27;;;;;;;7.62;1.90;;;;;;;4.56;98.52;97734.58;1716787;83;26883;-56
2023/11/24 01:30:57;;;;;;;4.95;2.10;;;;;;;4.53;98.23;97737.14;1716677;83;25731;-54
2023/11/24 01:33:27;;;;;;;9.18;2.27;;;;;;;4.53;98.42;97733.12;1717164;83;25533;-54
2023/11/24 01:35:57;;;;;;;9.00;2.00;;;;;;;4.52;98.46;97737.70;1718758;83;26304;-57
2023/11/24 01:38:26;;;;;;;5.42;1.37;;;;;;;4.52;98.78;97783.22;1718872;83;25634;-59
2023/11/24 01:40:56;;;;;;;2.87;0.70;;;;;;;4.49;98.75;97830.72;1718937;83;27695;-59
2023/11/24 01:43:26;;;;;;;3.83;1.17;;;;;;;4.30;96.76;97837.89;1718774;83;25745;-59
2023/11/24 01:45:56;;;;;;;4.25;1.02;;;;;;;4.06;95.93;97829.95;1718852;83;25546;-54
2023/11/24 01:48:24;;;;;;;1.25;0.50;;;;;;;3.85;95.84;97793.06;1685239;83;26177;-56
2023/11/24 01:50:54;;;;;;;1.65;0.90;;;;;;;3.66;95.87;97807.65;1718848;83;25583;-54
2023/11/24 01:53:23;;;;;;;2.77;0.70;;;;;;;3.49;96.15;97801.84;1719069;83;27695;-54
2023/11/24 01:55:53;;;;;;;1.30;0.70;;;;;;;3.32;96.36;97796.56;1719011;83;25548;-55
2023/11/24 01:58:19;;;;;;;;;;;;;;;3.18;96.75;97778.09;1721508;83;25421;-54
2023/11/24 02:00:50;;;;;;;0.80;0.62;;;;;;;3.07;97.33;97762.20;1718956;83;25621;-53
2023/11/24 02:03:17;;;;;;;2.00;0.78;;;;;;;2.98;97.82;97766.25;1719105;83;25392;-54
2023/11/24 02:05:49;;;;;;;1.77;0.90;;;;;;;2.91;97.97;97788.63;1713629;83;27517;-55
2023/11/24 02:08:19;;;;;;;5.62;1.22;;;;;;;2.83;98.26;97783.57;1718873;83;25400;-54
2023/11/24 02:10:48;;;;;;;;;;;;;;;2.77;98.59;97768.81;1721552;83;25470;-57
2023/11/24 02:13:18;;;;;;;2.65;0.70;;;;;;;2.72;98.80;97767.09;1719142;83;26677;-57
2023/11/24 02:15:48;;;;;;;1.20;0.75;;;;;;;2.68;99.17;97770.17;1719017;83;25398;-58
2023/11/24 02:18:15;;;;;;;1.37;0.85;;;;;;;2.65;99.54;97762.80;1696528;83;27878;-57
2023/11/24 02:20:43;;;;;;;3.70;1.30;;;;;;;2.65;99.88;97754.02;1718933;83;25983;-57
2023/11/24 02:23:11;;;;;;;2.08;1.10;;;;;;;2.64;100.00;97754.58;1718951;83;25592;-57
2023/11/24 02:25:41;;;;;;;5.65;2.60;;;;;;;2.64;100.00;97759.11;1718934;83;25615;-56
2023/11/24 02:28:11;;;;;;;4.33;1.72;;;;;;;2.60;100.00;97747.73;1719118;83;25558;-55
2023/11/24 02:30:41;;;;;;;7.05;2.33;;;;;;;2.58;100.00;97758.50;1718942;83;27340;-57
2023/11/24 02:33:08;;;;;;;4.67;1.60;;;;;;;2.57;100.00;97759.59;1718800;82;25999;-56
2023/11/24 02:35:42;;;;;;;3.30;1.57;;;;;;;2.55;100.00;97763.14;1719067;83;25575;-53
2023/11/24 02:38:11;;;;;;;6.90;1.50;;;;;;;2.54;100.00;97757.59;1719003;83;25660;-55
2023/11/24 02:40:43;;;;;;;3.70;1.67;;;;;;;2.53;100.00;97762.12;1719116;83;25576;-54
2023/11/24 02:43:12;;;;;;;3.27;1.40;;;;;;;2.54;100.00;97762.92;1696734;83;27299;-55
2023/11/24 02:45:40;;;;;;;2.72;1.60;;;;;;;2.54;100.00;97767.70;1684922;83;25736;-56
2023/11/24 02:48:11;;;;;;;4.58;1.85;;;;;;;2.53;100.00;97768.79;1718940;83;25405;-57
2023/11/24 02:50:41;;;;;;;4.58;2.00;;;;;;;2.51;100.00;97757.66;1719007;83;25679;-58
2023/11/24 02:53:08;;;;;;;4.15;1.40;;;;;;;2.51;100.00;97759.55;1719064;83;25585;-57
2023/11/24 02:55:37;;;;;;;3.70;1.55;;;;;;;2.50;100.00;97766.75;1718959;83;28409;-57
2023/11/24 02:58:07;;;;;;;4.97;1.75;;;;;;;2.47;100.00;97766.07;1718845;83;26006;-57
2023/11/24 03:00:37;;;;;;;4.40;1.60;;;;;;;2.47;100.00;97750.06;1685165;83;25536;-56
2023/11/24 03:03:07;;;;;;;;;;;;;;;2.46;100.00;97751.16;1721492;83;25617;-58
2023/11/24 03:05:37;;;;;;;7.47;1.92;;;;;;;2.48;100.00;97759.62;1719035;83;25450;-58
2023/11/24 03:08:08;;;;;;;5.78;1.87;;;;;;;2.50;100.00;97755.30;1718881;83;28391;-57
2023/11/24 03:10:36;;;;;;;6.83;1.82;;;;;;;2.51;100.00;97751.55;1718881;83;25463;-56
2023/11/24 03:13:03;;;;;;;4.03;2.22;;;;;;;2.52;100.00;97756.56;1719021;83;25638;-59
2023/11/24 03:15:31;;;;;;;3.17;2.02;;;;;;;2.54;100.00;97753.58;1718903;83;26603;-57
2023/11/24 03:17:58;;;;;;;6.90;2.30;;;;;;;2.55;100.00;97747.13;1684610;83;25594;-58
2023/11/24 03:20:25;;;;;;;4.90;2.10;;;;;;;2.57;100.00;97748.92;1718892;83;27214;-57
2023/11/24 03:22:55;;;;;;;8.05;2.37;;;;;;;2.57;100.00;97745.72;1718852;83;25475;-56
2023/11/24 03:25:25;;;;;;;5.30;2.05;;;;;;;2.59;100.00;97743.52;1718857;83;25462;-58
2023/11/24 03:27:54;;;;;;;6.95;2.77;;;;;;;2.63;100.00;97744.22;1718834;83;25630;-58
2023/11/24 03:30:21;;;;;;;7.42;2.05;;;;;;;2.65;100.00;97746.02;1718926;83;25687;-57
2023/11/24 03:32:48;;;;;;;5.75;2.35;;;;;;;2.66;100.00;97742.25;1718873;83;27347;-57
2023/11/24 03:35:18;;;;;;;6.25;2.33;;;;;;;2.70;100.00;97735.16;1718698;83;25450;-57
2023/11/24 03:37:47;;;;;;;10.05;2.55;;;;;;;2.74;100.00;97742.22;1718860;83;25547;-57
2023/11/24 03:40:14;;;;;;;;;;;;;;;2.77;100.00;97740.78;1721401;83;26436;-57
2023/11/24 03:42:40;;;;;;;8.55;2.33;;;;;;;2.79;100.00;97736.70;1719158;83;25608;-56
2023/11/24 03:45:11;;;;;;;5.90;2.15;;;;;;;2.82;100.00;97738.50;1685970;83;27879;-57
2023/11/24 03:47:39;;;;;;;6.95;2.33;;;;;;;2.85;100.00;97731.97;1720285;83;25436;-57
2023/11/24 03:50:10;;;;;;;5.05;2.45;;;;;;;2.88;100.00;97734.00;1719802;83;25569;-56
2023/11/24 03:52:40;;;;;;;12.80;2.42;;;;;;;2.92;100.00;97733.58;1718920;83;25652;-54
2023/11/24 03:55:11;;;;;;;10.13;2.42;;;;;;;2.96;100.00;97726.51;1718986;83;25455;-55
2023/11/24 03:57:39;;;;;;;6.80;3.00;;;;;;;2.98;100.00;97726.97;1718925;83;27321;-56
2023/11/24 04:00:11;;;;;;;7.20;1.98;;;;;;;3.01;100.00;97730.09;1718861;83;25383;-55
2023/11/24 04:02:41;;;;;;;9.90;2.15;;;;;;;3.03;100.00;97731.88;1718922;83;25450;-57
2023/11/24 04:05:10;;;;;;;8.00;2.00;;;;;;;3.06;100.00;97735.25;1718894;83;26212;-55
2023/11/24 04:07:41;;;;;;;;;;;;;;;3.07;100.00;97732.83;1721502;83;25622;-55
2023/11/24 04:10:11;;;;;;;9.28;2.58;;;;;;;3.07;100.00;97733.59;1718920;83;27335;-58
2023/11/24 04:12:40;;;;;;;8.48;2.35;;;;;;;3.06;100.00;97737.36;1718925;83;25667;-56
2023/11/24 04:15:10;;;;;;;9.18;2.35;;;;;;;3.05;100.00;97738.48;1719216;83;25405;-55
2023/11/24 04:17:38;;;;;;;6.15;2.35;;;;;;;3.04;100.00;97730.23;1719347;83;26264;-57
2023/11/24 04:20:11;;;;;;;8.63;2.10;;;;;;;3.04;100.00;97736.13;1718938;83;25595;-58
2023/11/24 04:22:37;;;;;;;4.87;2.00;;;;;;;3.04;100.00;97732.13;1718069;83;27708;-57
2023/11/24 04:25:06;;;;;;;12.18;2.10;;;;;;;3.06;100.00;97732.58;1718827;83;25568;-57
2023/11/24 04:27:33;;;;;;;7.62;2.45;;;;;;;3.05;100.00;97727.00;1719040;83;25659;-58
2023/11/24 04:30:00;;;;;;;9.28;2.35;;;;;;;3.04;100.00;97720.88;1718885;83;25625;-58
2023/11/24 04:32:29;;;;;;;9.95;2.67;;;;;;;3.03;100.00;97724.67;1685253;83;25604;-60
2023/11/24 04:34:57;;;;;;;14.18;2.15;;;;;;;3.04;100.00;97722.22;1715869;83;27330;-54
2023/11/24 04:37:24;;;;;;;6.30;2.00;;;;;;;3.06;100.00;97714.66;1712380;83;25393;-53
2023/11/24 04:39:52;;;;;;;8.98;2.30;;;;;;;3.04;100.00;97718.21;1712482;83;25546;-55
2023/11/24 04:42:20;;;;;;;7.12;2.10;;;;;;;3.05;100.00;97723.80;1712454;83;26499;-55
2023/11/24 04:44:47;;;;;;;6.67;2.20;;;;;;;3.04;99.82;97723.55;1712519;83;25419;-54
2023/11/24 04:47:14;;;;;;;9.10;2.75;;;;;;;3.03;99.79;97723.34;1712510;83;27547;-54
2023/11/24 04:49:43;;;;;;;9.38;1.80;;;;;;;3.03;99.79;97723.88;1712394;83;25615;-54
2023/11/24 04:52:10;;;;;;;7.78;2.10;;;;;;;3.04;99.81;97717.44;1712498;83;25572;-53
2023/11/24 04:54:37;;;;;;;6.37;2.00;;;;;;;3.08;99.70;97724.49;1712481;83;26342;-54
2023/11/24 04:57:08;;;;;;;5.92;2.17;;;;;;;3.11;99.67;97729.73;1712476;83;25642;-57
2023/11/24 04:59:43;;;;;;;7.47;2.15;;;;;;;3.13;99.67;97725.65;1712429;83;27422;-57
2023/11/24 05:02:09;;;;;;;7.62;2.20;;;;;;;3.16;99.37;97725.54;1712432;83;25704;-55
2023/11/24 05:04:37;;;;;;;6.00;2.42;;;;;;;3.19;99.25;97732.91;1712474;83;25549;-57
2023/11/24 05:07:05;;;;;;;8.48;1.62;;;;;;;3.21;99.00;97728.59;1712430;83;25835;-55
2023/11/24 05:09:32;;;;;;;7.65;2.05;;;;;;;3.22;98.54;97720.25;1712486;83;25450;-54
2023/11/24 05:12:00;;;;;;;5.78;2.50;;;;;;;3.24;98.58;97734.06;1712489;83;27929;-55
2023/11/24 05:14:27;;;;;;;9.73;1.95;;;;;;;3.26;98.41;97731.08;1712366;83;25641;-56
2023/11/24 05:16:54;;;;;;;13.05;3.17;;;;;;;3.26;98.04;97737.19;1712473;83;25532;-54
2023/11/24 05:19:22;;;;;;;6.75;1.75;;;;;;;3.26;97.51;97733.19;1712442;83;25647;-53
2023/11/24 05:21:49;;;;;;;8.03;3.10;;;;;;;3.27;96.83;97732.09;1712517;83;25466;-57
2023/11/24 05:24:16;;;;;;;6.55;1.30;;;;;;;3.28;95.98;97738.21;1712470;83;27961;-57
2023/11/24 05:26:43;;;;;;;9.93;1.77;;;;;;;3.29;95.61;97746.47;1712406;83;25627;-57
2023/11/24 05:29:10;;;;;;;9.43;1.80;;;;;;;3.30;95.78;97742.67;1712669;83;25201;-56
2023/11/24 05:31:36;;;;;;;3.72;1.62;;;;;;;3.30;95.87;97746.67;1712596;83;25952;-56
2023/11/24 05:34:03;;;;;;;6.50;1.82;;;;;;;3.32;95.72;97757.28;1712683;83;25644;-56
2023/11/24 05:36:31;;;;;;;10.43;1.80;;;;;;;3.32;95.52;97743.92;1718867;83;27232;-56
2023/11/24 05:38:57;;;;;;;8.78;1.62;;;;;;;3.32;95.28;97744.46;1718935;83;25589;-55
2023/11/24 05:41:30;;;;;;;3.75;1.42;;;;;;;3.30;94.69;97749.34;1718995;83;25480;-57
2023/11/24 05:43:53;;;;;;;5.50;1.50;;;;;;;3.31;94.94;97748.26;1717642;83;26180;-58
2023/11/24 05:46:20;;;;;;;8.03;1.60;;;;;;;3.31;94.36;97746.36;1719143;83;25597;-56
2023/11/24 05:48:48;;;;;;;7.03;1.47;;;;;;;3.31;94.64;97757.61;1719003;83;27217;-55
2023/11/24 05:51:15;;;;;;;6.47;1.17;;;;;;;3.30;94.25;97758.70;1718933;83;25697;-54
2023/11/24 05:53:41;;;;;;;8.13;1.55;;;;;;;3.30;94.28;97767.52;1719020;83;25389;-53
2023/11/24 05:56:09;;;;;;;9.38;1.57;;;;;;;3.31;94.13;97788.34;1696608;83;25953;-56
2023/11/24 05:58:36;;;;;;;9.80;1.70;;;;;;;3.29;93.68;97753.92;1718996;83;25660;-54
2023/11/24 06:01:03;;;;;;;4.78;1.77;;;;;;;3.30;93.60;97768.05;1719020;83;27686;-55
2023/11/24 06:03:30;;;;;;;5.35;1.82;;;;;;;3.28;93.65;97771.05;1718929;83;25548;-58
2023/11/24 06:05:57;;;;;;;9.63;2.05;;;;;;;3.30;93.67;97779.55;1718986;83;25506;-56
2023/11/24 06:08:24;;;;;;;8.40;2.27;;;;;;;3.29;93.42;97777.97;1718977;83;25669;-55
2023/11/24 06:10:51;;;;;;;10.18;2.30;;;;;;;3.28;93.53;97776.95;1719032;83;25560;-55
2023/11/24 06:13:17;;;;;;;9.55;2.70;;;;;;;3.26;93.59;97779.94;1718969;83;28330;-55
2023/11/24 06:15:44;;;;;;;7.87;2.30;;;;;;;3.29;93.67;97787.31;1718988;83;25461;-54
2023/11/24 06:18:11;;;;;;;11.00;2.52;;;;;;;3.26;93.68;97786.62;1719051;83;25540;-54
2023/11/24 06:20:39;;;;;;;13.93;3.65;;;;;;;3.26;93.55;97785.28;1718957;83;26264;-55
2023/11/24 06:23:06;;;;;;;8.28;2.50;;;;;;;3.23;93.60;97790.48;1719012;83;25403;-56
2023/11/24 06:25:33;;;;;;;9.83;2.72;;;;;;;3.24;93.41;97792.06;1696332;83;27919;-57
2023/11/24 06:27:59;;;;;;;9.18;2.77;;;;;;;3.20;93.05;97793.23;1718549;83;25998;-58
2023/11/24 06:30:27;;;;;;;6.33;2.52;;;;;;;3.19;93.46;97801.03;1718986;83;25582;-57
2023/11/24 06:32:55;;;;;;;13.15;3.05;;;;;;;3.16;93.35;97798.44;1719073;83;25665;-58
2023/11/24 06:35:22;;;;;;;7.08;2.15;;;;;;;3.15;93.27;97803.56;1718920;83;25415;-57
2023/11/24 06:37:49;;;;;;;10.58;2.67;;;;;;;3.15;93.44;97804.91;1718899;83;27310;-56
2023/11/24 06:40:16;;;;;;;6.72;2.10;;;;;;;3.14;93.18;97805.99;1718956;83;25769;-58
2023/11/24 06:42:43;;;;;;;11.05;2.37;;;;;;;3.12;93.05;97803.42;1718994;83;25657;-56
2023/11/24 06:45:12;;;;;;;11.03;2.15;;;;;;;3.11;93.20;97813.30;1718950;83;26577;-56
2023/11/24 06:47:41;;;;;;;9.45;2.45;;;;;;;3.10;93.30;97817.10;1697000;83;25660;-56
2023/11/24 06:50:15;;;;;;;15.18;2.87;;;;;;;3.10;92.66;97813.63;1718944;83;27236;-57
2023/11/24 06:52:43;;;;;;;9.88;2.70;;;;;;;3.09;92.58;97818.75;1717682;83;25588;-55
2023/11/24 06:55:11;;;;;;;9.53;2.72;;;;;;;3.08;92.39;97829.19;1718936;83;25464;-55
2023/11/24 06:57:38;;;;;;;7.90;2.90;;;;;;;3.07;92.24;97818.30;1718881;83;25526;-55
2023/11/24 07:00:16;;;;;;;10.35;2.15;;;;;;;3.08;92.59;97823.31;1718994;83;25513;-57
2023/11/24 07:02:40;;;;;;;12.53;2.33;;;;;;;3.08;92.20;97813.97;1696065;83;28042;-56
2023/11/24 07:05:09;;;;;;;12.28;2.40;;;;;;;3.08;91.84;97826.52;1718999;83;25388;-57
2023/11/24 07:07:37;;;;;;;8.13;2.37;;;;;;;3.05;91.93;97822.61;1718940;83;25589;-57
2023/11/24 07:10:11;;;;;;;12.23;2.72;;;;;;;3.07;91.98;97825.74;1696972;83;26343;-56
2023/11/24 07:12:38;;;;;;;6.30;2.17;;;;;;;3.08;91.84;97819.84;1718822;83;25391;-55
2023/11/24 07:15:08;;;;;;;12.63;2.37;;;;;;;3.10;91.73;97822.97;1718955;83;27203;-57
2023/11/24 07:17:35;;;;;;;14.13;3.00;;;;;;;3.11;91.99;97826.66;1696435;83;25418;-57
2023/11/24 07:20:11;;;;;;;8.20;2.62;;;;;;;3.13;92.22;97828.48;1719100;83;25558;-57
2023/11/24 07:22:45;;;;;;;20.32;3.40;;;;;;;3.13;91.98;97815.66;1718956;83;26615;-55
2023/11/24 07:25:15;;;;;;;17.65;3.50;;;;;;;3.18;91.79;97830.18;1717657;83;25398;-55
2023/11/24 07:27:43;;;;;;;12.18;4.15;;;;;;;3.21;91.75;97816.75;1718986;83;28073;-55
2023/11/24 07:30:12;;;;;;;15.55;2.98;;;;;;;3.23;91.54;97827.33;1718823;83;25579;-55
2023/11/24 07:32:40;;;;;;;10.65;2.42;;;;;;;3.24;91.33;97822.23;1718955;83;25422;-56
2023/11/24 07:35:10;;;;;;;15.05;3.25;;;;;;;3.24;91.42;97831.58;1717579;83;25930;-53
2023/11/24 07:37:36;;;;;;;;;;;;;;;3.27;91.31;97818.12;1713588;83;25551;-55
2023/11/24 07:40:10;;;;;;;12.18;2.52;;;;;;;3.28;91.48;97819.14;1711005;83;27296;-55
2023/11/24 07:42:36;;;;;;;14.00;2.58;;;;;;;3.29;91.26;97822.61;1709843;83;25454;-56
2023/11/24 07:45:06;;;;;;;13.03;2.67;;;;;;;3.28;90.92;97815.69;1710985;83;25549;-56
2023/11/24 07:47:32;;;;;;;8.25;1.92;;;;;;;3.25;90.42;97821.14;1691019;83;25660;-54
2023/11/24 07:50:00;;;;;;;12.33;2.33;;;;;;;3.29;90.69;97818.05;1710956;83;25470;-56
2023/11/24 07:52:27;;;;;;;11.35;2.42;;;;;;;3.30;90.74;97818.28;1710991;83;28204;-57
2023/11/24 07:54:55;;;;;;;10.00;2.87;;;;;;;3.29;90.10;97810.59;1710879;83;25857;-55
2023/11/24 07:57:27;;;;;;;10.00;2.70;;;;;;;3.33;90.20;97811.50;1710946;83;25573;-56
2023/11/24 07:59:55;;;;;;;14.68;4.40;;;;;;;3.32;90.02;97810.73;1710997;83;25638;-53
2023/11/24 08:02:25;;;;;;;9.08;2.30;;;;;;;3.35;90.35;97809.28;1710958;83;25391;-56
2023/11/24 08:04:54;;;;;;;13.80;3.45;;;;;;;3.36;90.45;97820.99;1710944;83;27697;-57
2023/11/24 08:07:22;;;;;;;11.00;2.65;;;;;;;3.35;89.44;97813.30;1710886;83;25698;-57
2023/11/24 08:09:49;;;;;;;10.77;2.23;;;;;;;3.36;89.39;97812.98;1711218;83;25578;-59
2023/11/24 08:12:17;;;;;;;13.03;2.98;;;;;;;3.33;89.15;97814.95;1710930;83;26213;-57
2023/11/24 08:14:45;;;;;;;13.20;2.67;;;;;;;3.33;89.31;97815.52;1711465;83;25624;-54
2023/11/24 08:17:15;;;;;;;12.78;2.98;;;;;;;3.34;89.39;97816.53;1711848;83;25872;-53
2023/11/24 08:19:45;;;;;;;8.08;3.27;;;;;;;3.31;89.16;97809.71;1711892;83;25430;-53
2023/11/24 08:22:13;;;;;;;10.30;2.92;;;;;;;3.29;87.92;97806.02;1658206;86;25947;-56
2023/11/24 08:24:42;;;;;;;11.35;2.75;;;;;;;3.26;88.72;97803.21;1657531;86;26450;-57
2023/11/24 08:27:11;;;;;;;;;;;;;;;3.33;88.69;97816.28;1659775;85;25359;-55
2023/11/24 08:29:40;;;;;;;10.72;3.55;;;;;;;3.33;88.24;97808.83;1664879;86;26826;-57
2023/11/24 08:32:10;;;;;;;15.15;3.47;;;;;;;3.36;88.08;97810.86;1664751;86;25725;-56
2023/11/24 08:34:42;;;;;;;;;;;;;;;3.34;88.13;97806.40;1667296;86;25560;-55
2023/11/24 08:37:08;;;;;;;10.10;2.40;;;;;;;3.38;88.34;97814.55;1667186;85;25615;-55
2023/11/24 08:39:38;;;;;;;12.15;2.60;;;;;;;3.36;88.09;97806.86;1667964;86;25531;-57
2023/11/24 08:42:08;;;;;;;15.40;2.45;;;;;;;3.39;87.83;97804.08;1667986;86;27733;-57
2023/11/24 08:44:34;;;;;;;11.78;3.08;;;;;;;3.42;87.40;97802.88;1667846;86;25691;-57
2023/11/24 08:47:03;;;;;;;14.98;3.10;;;;;;;3.41;87.07;97788.53;1701435;83;25661;-57
2023/11/24 08:49:34;;;;;;;12.07;3.15;;;;;;;3.48;87.02;97796.81;1725113;83;25628;-57
2023/11/24 08:52:00;;;;;;;;;;;;;;;3.51;87.58;97788.94;1727489;83;25589;-57
2023/11/24 08:54:30;;;;;;;11.25;2.92;;;;;;;3.56;87.24;97797.33;1724877;83;28367;-56
2023/11/24 08:56:57;;;;;;;10.25;2.70;;;;;;;3.56;86.00;97796.00;1724768;83;25503;-56
2023/11/24 08:59:26;;;;;;;10.53;3.10;;;;;;;3.60;86.28;97787.55;1724903;83;25552;-57
2023/11/24 09:01:56;;;;;;;12.35;2.65;;;;;;;3.62;85.32;97799.25;1725113;83;25631;-57
2023/11/24 09:04:27;;;;;;;8.40;2.50;;;;;;;3.59;85.18;97783.86;1725242;83;25251;-56
2023/11/24 09:06:57;;;;;;;6.97;2.47;;;;;;;3.63;85.76;97780.78;1725139;83;28008;-55
2023/11/24 09:09:28;;;;;;;7.35;2.70;;;;;;;3.65;85.43;97794.04;1724959;83;25598;-57
2023/11/24 09:11:58;;;;;;;11.95;2.98;;;;;;;3.61;84.67;97791.80;1725081;83;25694;-54
2023/11/24 09:14:24;;;;;;;9.60;2.37;;;;;;;3.62;85.30;97778.64;1725027;83;26447;-57
2023/11/24 09:16:56;;;;;;;10.60;2.30;;;;;;;3.63;85.35;97775.44;1725061;83;25483;-57
2023/11/24 09:19:25;;;;;;;10.08;2.70;;;;;;;3.68;85.57;97777.92;1725081;83;27904;-56
2023/11/24 09:21:52;;;;;;;8.70;2.80;;;;;;;3.70;85.88;97771.69;1725113;83;25551;-57
2023/11/24 09:24:19;;;;;;;14.23;3.25;;;;;;;3.75;85.38;97760.80;1725037;83;25541;-56
2023/11/24 09:26:46;;;;;;;9.10;2.77;;;;;;;3.74;84.81;97772.03;1725007;83;25626;-54
2023/11/24 09:29:16;;;;;;;10.00;3.45;;;;;;;3.77;84.46;97759.91;1725202;83;25607;-53
2023/11/24 09:31:45;;;;;;;13.20;3.40;;;;;;;3.77;84.40;97769.84;1725027;83;27213;-53
2023/11/24 09:34:16;;;;;;;12.28;3.45;;;;;;;3.74;84.53;97768.58;1725087;83;26050;-55
2023/11/24 09:36:46;;;;;;;13.88;2.87;;;;;;;3.76;84.49;97764.25;1720402;82;25550;-53
2023/11/24 09:39:22;;;;;;;8.58;2.80;;;;;;;3.74;84.35;97751.98;1716434;83;26665;-54
2023/11/24 09:41:53;;;;;;;10.18;2.47;;;;;;;3.71;82.24;97754.52;1716335;83;25474;-52
2023/11/24 09:44:21;;;;;;;6.00;2.30;;;;;;;3.74;83.43;97763.23;1716584;83;27252;-56
2023/11/24 09:46:51;;;;;;;8.93;2.27;;;;;;;3.72;82.71;97755.53;1716461;83;25637;-55
2023/11/24 09:49:22;;;;;;;9.38;2.50;;;;;;;3.74;82.62;97755.22;1716514;83;25544;-52
2023/11/24 09:51:52;;;;;;;12.25;2.90;;;;;;;3.73;83.01;97740.30;1716498;83;25486;-54
2023/11/24 09:54:24;;;;;;;10.40;2.35;;;;;;;3.80;82.94;97748.58;1716518;83;25391;-53
2023/11/24 09:56:56;;;;;;;12.60;2.58;;;;;;;3.82;82.78;97742.34;1716586;83;28036;-56
2023/11/24 09:59:24;;;;;;;12.10;2.15;;;;;;;3.80;82.33;97743.77;1716474;83;25674;-55
2023/11/24 10:01:55;;;;;;;8.28;2.40;;;;;;;3.80;81.94;97738.41;1716443;83;25541;-53
2023/11/24 10:04:25;;;;;;;6.72;1.92;;;;;;;3.80;81.96;97741.89;1716476;83;26634;-54
2023/11/24 10:06:56;;;;;;;8.63;2.22;;;;;;;3.80;81.96;97730.39;1716573;83;25483;-53
2023/11/24 10:09:28;;;;;;;8.83;2.08;;;;;;;3.76;81.37;97727.59;1716567;83;27527;-52
2023/11/24 10:11:58;;;;;;;12.50;3.20;;;;;;;3.76;81.26;97730.83;1691076;83;25713;-55
2023/11/24 10:14:25;;;;;;;11.70;2.50;;;;;;;3.76;81.76;97734.84;1716676;83;25603;-53
2023/11/24 10:16:54;;;;;;;10.28;2.20;;;;;;;3.79;80.85;97731.52;1716632;83;25666;-54
2023/11/24 10:19:26;;;;;;;16.20;2.77;;;;;;;3.80;80.59;97733.06;1716746;83;25461;-54
2023/11/24 10:21:53;;;;;;;15.85;2.70;;;;;;;3.78;80.25;97734.75;1716479;82;27708;-53
2023/11/24 10:24:25;;;;;;;6.55;2.17;;;;;;;3.78;80.62;97733.41;1716698;83;25462;-53
2023/11/24 10:26:52;;;;;;;7.17;2.05;;;;;;;3.86;80.82;97737.12;1716636;83;25628;-53
2023/11/24 10:29:23;;;;;;;8.58;2.08;;;;;;;3.92;80.52;97724.56;1716681;83;25604;-53
2023/11/24 10:31:47;;;;;;;7.42;1.85;;;;;;;3.95;80.12;97720.47;1714485;83;25683;-54
2023/11/24 10:34:14;;;;;;;2.12;1.42;;;;;;;3.96;79.11;97715.89;1692212;83;27990;-57
2023/11/24 10:36:45;;;;;;;6.25;1.82;;;;;;;4.02;79.37;97726.06;1694068;83;25723;-53
2023/11/24 10:39:15;;;;;;;7.62;2.30;;;;;;;4.23;79.88;97722.01;1727063;83;25495;-57
2023/11/24 10:41:46;;;;;;;11.18;2.22;;;;;;;4.60;79.78;97727.47;1726971;83;25748;-58
2023/11/24 10:44:17;;;;;;;7.10;1.98;;;;;;;4.92;79.57;97716.23;1727034;83;25685;-58
2023/11/24 10:46:47;;;;;;;7.08;2.12;;;;;;;4.99;77.60;97716.48;1727060;83;28278;-55
2023/11/24 10:49:26;;;;;;;4.65;1.47;;;;;;;4.98;77.67;97707.64;1726863;83;25573;-55
2023/11/24 10:52:03;;;;;;;9.05;1.77;;;;;;;4.96;75.81;97727.29;1690808;83;25430;-54
2023/11/24 10:54:41;;;;;;;10.48;1.82;;;;;;;4.92;76.29;97729.63;1726892;83;25607;-57
2023/11/24 10:57:15;;;;;;;6.17;1.70;;;;;;;4.85;75.64;97731.51;1727173;83;25615;-52
2023/11/24 10:59:46;;;;;;;6.53;1.82;;;;;;;4.77;75.03;97721.14;1726981;83;27730;-54
2023/11/24 11:02:15;;;;;;;5.22;1.72;;;;;;;4.63;73.70;97721.45;1726946;83;25635;-53
2023/11/24 11:04:52;;;;;;;8.25;1.77;;;;;;;4.57;75.29;97737.50;1727002;83;25470;-52
2023/11/24 11:07:41;;;;;;;6.37;1.60;;;;;;;4.54;75.65;97730.13;1723559;82;25632;-56
2023/11/24 11:10:12;;;;;;;8.58;1.62;;;;;;;4.47;74.95;97741.37;1727028;83;25624;-54
2023/11/24 11:12:53;;;;;;;7.22;1.80;;;;;;;4.37;72.85;97744.46;1726999;83;27412;-53
2023/11/24 11:15:31;;;;;;;8.13;1.65;;;;;;;4.33;74.23;97740.12;1726935;83;25603;-58
2023/11/24 11:18:15;;;;;;;14.28;2.40;;;;;;;4.29;74.50;97741.30;1695059;83;25514;-54
2023/11/24 11:20:44;;;;;;;4.90;2.15;;;;;;;4.24;74.74;97736.97;1726914;83;26333;-55
2023/11/24 11:23:17;;;;;;;7.85;1.90;;;;;;;4.31;74.83;97733.75;1726962;83;25668;-54
2023/11/24 11:25:50;;;;;;;5.53;2.37;;;;;;;4.30;74.79;97743.66;1726970;83;28229;-46
2023/11/24 11:28:24;;;;;;;3.00;1.55;;;;;;;4.29;74.81;97739.97;1726724;83;25640;-46
2023/11/24 11:30:58;;;;;;;5.28;1.50;;;;;;;4.32;74.41;97735.30;1726928;83;25402;-48
2023/11/24 11:33:29;;;;;;;4.22;1.67;;;;;;;4.60;77.19;97740.08;1726904;83;25609;-53
2023/11/24 11:36:05;;;;;;;17.15;7.58;;;;;;;4.93;74.95;97747.27;1727098;83;25566;-50
2023/11/24 11:38:43;;;;;;;7.45;2.52;;;;;;;5.00;73.90;97739.45;1717145;82;27955;-57
2023/11/24 11:41:25;;;;;;;17.15;3.22;;;;;;;5.07;74.00;97746.38;1716856;83;25548;-56
2023/11/24 11:43:56;;;;;;;7.67;1.65;;;;;;;5.27;75.79;97737.23;1685872;85;25675;-55
2023/11/24 11:46:25;;;;;;;2.87;1.20;;;;;;;6.04;77.21;97735.88;1686685;85;25796;-54
2023/11/24 11:48:55;;;;;;;7.40;1.77;;;;;;;6.35;72.74;97737.89;1687516;85;25609;-54